sensor_id;sensor_type;location;lat;lon;timestamp;P1;durP1;ratioP1;P2;durP2;ratioP2
70707;SDS011;58277;47.316;18.908;2023-04-03T00:01:31;10.38;;;4.88;;
70707;SDS011;58277;47.316;18.908;2023-04-03T00:03:55;9.73;;;4.65;;
70707;SDS011;58277;47.316;18.908;2023-04-03T00:06:18;9.45;;;4.50;;
70707;SDS011;58277;47.316;18.908;2023-04-03T00:08:41;9.85;;;4.65;;
70707;SDS011;58277;47.316;18.908;2023-04-03T00:11:04;9.30;;;4.33;;
70707;SDS011;58277;47.316;18.908;2023-04-03T00:13:27;8.85;;;4.50;;
70707;SDS011;58277;47.316;18.908;2023-04-03T00:15:50;10.98;;;4.25;;
70707;SDS011;58277;47.316;18.908;2023-04-03T00:18:13;8.93;;;4.70;;
70707;SDS011;58277;47.316;18.908;2023-04-03T00:20:36;10.02;;;4.60;;
70707;SDS011;58277;47.316;18.908;2023-04-03T00:23:00;8.63;;;4.50;;
70707;SDS011;58277;47.316;18.908;2023-04-03T00:25:23;9.02;;;4.32;;
70707;SDS011;58277;47.316;18.908;2023-04-03T00:27:46;8.55;;;4.10;;
70707;SDS011;58277;47.316;18.908;2023-04-03T00:30:09;8.88;;;3.85;;
70707;SDS011;58277;47.316;18.908;2023-04-03T00:32:35;8.68;;;4.20;;
70707;SDS011;58277;47.316;18.908;2023-04-03T00:34:57;8.57;;;4.30;;
70707;SDS011;58277;47.316;18.908;2023-04-03T00:37:21;8.43;;;4.50;;
70707;SDS011;58277;47.316;18.908;2023-04-03T00:39:44;8.25;;;4.20;;
70707;SDS011;58277;47.316;18.908;2023-04-03T00:42:07;8.45;;;4.25;;
70707;SDS011;58277;47.316;18.908;2023-04-03T00:46:55;8.13;;;4.00;;
70707;SDS011;58277;47.316;18.908;2023-04-03T00:49:18;6.88;;;3.60;;
70707;SDS011;58277;47.316;18.908;2023-04-03T00:51:41;8.40;;;3.95;;
70707;SDS011;58277;47.316;18.908;2023-04-03T00:54:05;6.28;;;3.30;;
70707;SDS011;58277;47.316;18.908;2023-04-03T00:56:30;7.32;;;3.63;;
70707;SDS011;58277;47.316;18.908;2023-04-03T00:59:10;7.43;;;3.83;;
70707;SDS011;58277;47.316;18.908;2023-04-03T01:01:36;8.05;;;3.58;;
70707;SDS011;58277;47.316;18.908;2023-04-03T01:04:00;7.97;;;3.60;;
70707;SDS011;58277;47.316;18.908;2023-04-03T01:06:28;7.57;;;3.40;;
70707;SDS011;58277;47.316;18.908;2023-04-03T01:09:00;7.65;;;3.65;;
70707;SDS011;58277;47.316;18.908;2023-04-03T01:11:24;7.43;;;3.80;;
70707;SDS011;58277;47.316;18.908;2023-04-03T01:13:47;8.95;;;3.97;;
70707;SDS011;58277;47.316;18.908;2023-04-03T01:16:11;6.50;;;3.47;;
70707;SDS011;58277;47.316;18.908;2023-04-03T01:18:34;7.15;;;3.22;;
70707;SDS011;58277;47.316;18.908;2023-04-03T01:26:25;5.85;;;3.00;;
70707;SDS011;58277;47.316;18.908;2023-04-03T01:28:48;6.72;;;3.28;;
70707;SDS011;58277;47.316;18.908;2023-04-03T01:33:42;5.82;;;3.08;;
70707;SDS011;58277;47.316;18.908;2023-04-03T01:36:06;7.57;;;3.17;;
70707;SDS011;58277;47.316;18.908;2023-04-03T01:38:30;6.93;;;3.00;;
70707;SDS011;58277;47.316;18.908;2023-04-03T01:40:53;6.35;;;3.17;;
70707;SDS011;58277;47.316;18.908;2023-04-03T01:43:15;5.78;;;3.17;;
70707;SDS011;58277;47.316;18.908;2023-04-03T01:45:38;6.07;;;3.10;;
70707;SDS011;58277;47.316;18.908;2023-04-03T01:48:01;6.33;;;2.80;;
70707;SDS011;58277;47.316;18.908;2023-04-03T01:50:24;5.63;;;3.00;;
70707;SDS011;58277;47.316;18.908;2023-04-03T01:52:47;7.25;;;2.92;;
70707;SDS011;58277;47.316;18.908;2023-04-03T01:55:10;5.53;;;2.75;;
70707;SDS011;58277;47.316;18.908;2023-04-03T01:57:33;5.82;;;2.83;;
70707;SDS011;58277;47.316;18.908;2023-04-03T01:59:56;6.57;;;2.70;;
70707;SDS011;58277;47.316;18.908;2023-04-03T02:02:19;6.18;;;3.13;;
70707;SDS011;58277;47.316;18.908;2023-04-03T02:04:42;5.70;;;2.92;;
70707;SDS011;58277;47.316;18.908;2023-04-03T02:07:05;5.32;;;2.90;;
70707;SDS011;58277;47.316;18.908;2023-04-03T02:09:28;5.60;;;2.92;;
70707;SDS011;58277;47.316;18.908;2023-04-03T02:11:50;6.90;;;3.30;;
70707;SDS011;58277;47.316;18.908;2023-04-03T02:14:13;6.35;;;2.90;;
70707;SDS011;58277;47.316;18.908;2023-04-03T02:16:36;4.95;;;2.70;;
70707;SDS011;58277;47.316;18.908;2023-04-03T02:18:59;6.47;;;2.88;;
70707;SDS011;58277;47.316;18.908;2023-04-03T02:21:22;6.25;;;3.05;;
70707;SDS011;58277;47.316;18.908;2023-04-03T02:23:45;8.50;;;3.30;;
70707;SDS011;58277;47.316;18.908;2023-04-03T02:26:09;6.80;;;3.55;;
70707;SDS011;58277;47.316;18.908;2023-04-03T02:28:33;6.00;;;3.03;;
70707;SDS011;58277;47.316;18.908;2023-04-03T02:30:57;6.40;;;2.85;;
70707;SDS011;58277;47.316;18.908;2023-04-03T02:33:19;7.03;;;3.33;;
70707;SDS011;58277;47.316;18.908;2023-04-03T02:36:04;4.93;;;2.80;;
70707;SDS011;58277;47.316;18.908;2023-04-03T02:38:28;7.22;;;3.30;;
70707;SDS011;58277;47.316;18.908;2023-04-03T02:40:51;6.82;;;3.00;;
70707;SDS011;58277;47.316;18.908;2023-04-03T02:43:14;7.35;;;3.20;;
70707;SDS011;58277;47.316;18.908;2023-04-03T02:45:37;8.15;;;3.70;;
70707;SDS011;58277;47.316;18.908;2023-04-03T02:48:00;7.00;;;3.37;;
70707;SDS011;58277;47.316;18.908;2023-04-03T02:50:24;7.07;;;3.20;;
70707;SDS011;58277;47.316;18.908;2023-04-03T02:52:47;6.05;;;3.00;;
70707;SDS011;58277;47.316;18.908;2023-04-03T02:55:12;6.80;;;3.30;;
70707;SDS011;58277;47.316;18.908;2023-04-03T02:57:38;6.15;;;3.35;;
70707;SDS011;58277;47.316;18.908;2023-04-03T03:00:00;6.67;;;3.43;;
70707;SDS011;58277;47.316;18.908;2023-04-03T03:02:24;7.57;;;3.65;;
70707;SDS011;58277;47.316;18.908;2023-04-03T03:04:47;7.40;;;3.47;;
70707;SDS011;58277;47.316;18.908;2023-04-03T03:07:09;6.53;;;3.50;;
70707;SDS011;58277;47.316;18.908;2023-04-03T03:09:33;6.28;;;3.00;;
70707;SDS011;58277;47.316;18.908;2023-04-03T03:11:56;7.27;;;3.80;;
70707;SDS011;58277;47.316;18.908;2023-04-03T03:14:19;7.40;;;3.67;;
70707;SDS011;58277;47.316;18.908;2023-04-03T03:16:42;7.20;;;3.47;;
70707;SDS011;58277;47.316;18.908;2023-04-03T03:19:04;7.60;;;3.85;;
70707;SDS011;58277;47.316;18.908;2023-04-03T03:21:29;6.75;;;3.33;;
70707;SDS011;58277;47.316;18.908;2023-04-03T03:23:51;8.23;;;3.77;;
70707;SDS011;58277;47.316;18.908;2023-04-03T03:26:14;6.93;;;3.53;;
70707;SDS011;58277;47.316;18.908;2023-04-03T03:28:37;7.60;;;3.50;;
70707;SDS011;58277;47.316;18.908;2023-04-03T03:31:01;6.75;;;3.50;;
70707;SDS011;58277;47.316;18.908;2023-04-03T03:33:26;6.90;;;3.40;;
70707;SDS011;58277;47.316;18.908;2023-04-03T03:35:49;8.23;;;3.47;;
70707;SDS011;58277;47.316;18.908;2023-04-03T03:38:12;6.55;;;3.50;;
70707;SDS011;58277;47.316;18.908;2023-04-03T03:40:35;6.82;;;3.58;;
70707;SDS011;58277;47.316;18.908;2023-04-03T03:42:58;7.50;;;4.00;;
70707;SDS011;58277;47.316;18.908;2023-04-03T03:45:20;6.75;;;3.67;;
70707;SDS011;58277;47.316;18.908;2023-04-03T03:47:43;8.13;;;3.70;;
70707;SDS011;58277;47.316;18.908;2023-04-03T03:50:06;8.10;;;3.65;;
70707;SDS011;58277;47.316;18.908;2023-04-03T03:52:32;6.65;;;3.40;;
70707;SDS011;58277;47.316;18.908;2023-04-03T03:54:55;7.60;;;3.90;;
70707;SDS011;58277;47.316;18.908;2023-04-03T03:57:18;8.10;;;3.53;;
70707;SDS011;58277;47.316;18.908;2023-04-03T03:59:41;7.47;;;3.70;;
70707;SDS011;58277;47.316;18.908;2023-04-03T04:02:04;7.10;;;3.45;;
70707;SDS011;58277;47.316;18.908;2023-04-03T04:04:27;7.65;;;3.53;;
70707;SDS011;58277;47.316;18.908;2023-04-03T04:06:50;7.25;;;3.70;;
70707;SDS011;58277;47.316;18.908;2023-04-03T04:09:14;8.43;;;3.85;;
70707;SDS011;58277;47.316;18.908;2023-04-03T04:11:37;7.60;;;3.60;;
70707;SDS011;58277;47.316;18.908;2023-04-03T04:14:03;7.95;;;3.53;;
70707;SDS011;58277;47.316;18.908;2023-04-03T04:16:26;7.78;;;3.85;;
70707;SDS011;58277;47.316;18.908;2023-04-03T04:18:51;8.60;;;3.95;;
70707;SDS011;58277;47.316;18.908;2023-04-03T04:21:14;7.03;;;3.70;;
70707;SDS011;58277;47.316;18.908;2023-04-03T04:23:38;8.03;;;3.40;;
70707;SDS011;58277;47.316;18.908;2023-04-03T04:26:01;8.93;;;3.78;;
70707;SDS011;58277;47.316;18.908;2023-04-03T04:28:28;6.85;;;3.47;;
70707;SDS011;58277;47.316;18.908;2023-04-03T04:30:53;7.65;;;3.92;;
70707;SDS011;58277;47.316;18.908;2023-04-03T04:33:19;8.52;;;3.85;;
70707;SDS011;58277;47.316;18.908;2023-04-03T04:35:42;7.77;;;4.03;;
70707;SDS011;58277;47.316;18.908;2023-04-03T04:38:06;6.75;;;3.15;;
70707;SDS011;58277;47.316;18.908;2023-04-03T04:40:31;7.22;;;3.45;;
70707;SDS011;58277;47.316;18.908;2023-04-03T04:42:54;7.68;;;3.53;;
70707;SDS011;58277;47.316;18.908;2023-04-03T04:45:17;7.78;;;3.60;;
70707;SDS011;58277;47.316;18.908;2023-04-03T04:47:42;8.00;;;3.90;;
70707;SDS011;58277;47.316;18.908;2023-04-03T04:50:05;7.72;;;3.40;;
70707;SDS011;58277;47.316;18.908;2023-04-03T04:52:28;7.82;;;3.22;;
70707;SDS011;58277;47.316;18.908;2023-04-03T04:54:51;7.50;;;3.80;;
70707;SDS011;58277;47.316;18.908;2023-04-03T04:57:14;6.88;;;3.28;;
70707;SDS011;58277;47.316;18.908;2023-04-03T04:59:38;7.40;;;3.90;;
70707;SDS011;58277;47.316;18.908;2023-04-03T05:02:02;7.38;;;3.35;;
70707;SDS011;58277;47.316;18.908;2023-04-03T05:04:26;7.07;;;3.70;;
70707;SDS011;58277;47.316;18.908;2023-04-03T05:06:55;7.40;;;3.60;;
70707;SDS011;58277;47.316;18.908;2023-04-03T05:09:21;6.18;;;3.60;;
70707;SDS011;58277;47.316;18.908;2023-04-03T05:11:46;7.13;;;3.30;;
70707;SDS011;58277;47.316;18.908;2023-04-03T05:14:11;7.65;;;3.60;;
70707;SDS011;58277;47.316;18.908;2023-04-03T05:16:34;7.97;;;3.88;;
70707;SDS011;58277;47.316;18.908;2023-04-03T05:18:57;6.28;;;3.17;;
70707;SDS011;58277;47.316;18.908;2023-04-03T05:21:21;6.20;;;3.45;;
70707;SDS011;58277;47.316;18.908;2023-04-03T05:23:46;7.97;;;4.10;;
70707;SDS011;58277;47.316;18.908;2023-04-03T05:26:09;6.50;;;3.42;;
70707;SDS011;58277;47.316;18.908;2023-04-03T05:28:33;6.50;;;3.35;;
70707;SDS011;58277;47.316;18.908;2023-04-03T05:30:57;7.00;;;3.42;;
70707;SDS011;58277;47.316;18.908;2023-04-03T05:33:26;6.20;;;3.22;;
70707;SDS011;58277;47.316;18.908;2023-04-03T05:35:52;7.83;;;3.70;;
70707;SDS011;58277;47.316;18.908;2023-04-03T05:38:20;6.03;;;2.97;;
70707;SDS011;58277;47.316;18.908;2023-04-03T05:40:44;6.45;;;3.10;;
70707;SDS011;58277;47.316;18.908;2023-04-03T05:43:07;6.63;;;3.22;;
70707;SDS011;58277;47.316;18.908;2023-04-03T05:45:33;6.68;;;2.92;;
70707;SDS011;58277;47.316;18.908;2023-04-03T05:47:56;6.13;;;3.50;;
70707;SDS011;58277;47.316;18.908;2023-04-03T05:50:19;6.70;;;3.30;;
70707;SDS011;58277;47.316;18.908;2023-04-03T05:52:46;7.43;;;3.58;;
70707;SDS011;58277;47.316;18.908;2023-04-03T05:55:14;6.68;;;3.47;;
70707;SDS011;58277;47.316;18.908;2023-04-03T05:57:37;6.72;;;3.50;;
70707;SDS011;58277;47.316;18.908;2023-04-03T06:00:00;5.77;;;3.70;;
70707;SDS011;58277;47.316;18.908;2023-04-03T06:02:25;5.30;;;2.80;;
70707;SDS011;58277;47.316;18.908;2023-04-03T06:04:49;5.97;;;3.60;;
70707;SDS011;58277;47.316;18.908;2023-04-03T06:07:20;6.80;;;3.55;;
70707;SDS011;58277;47.316;18.908;2023-04-03T06:09:51;5.53;;;2.75;;
70707;SDS011;58277;47.316;18.908;2023-04-03T06:12:14;6.10;;;3.37;;
70707;SDS011;58277;47.316;18.908;2023-04-03T06:14:37;6.63;;;3.78;;
70707;SDS011;58277;47.316;18.908;2023-04-03T06:17:00;7.30;;;3.17;;
70707;SDS011;58277;47.316;18.908;2023-04-03T06:19:24;6.60;;;3.40;;
70707;SDS011;58277;47.316;18.908;2023-04-03T06:21:51;6.40;;;3.35;;
70707;SDS011;58277;47.316;18.908;2023-04-03T06:24:18;7.10;;;3.57;;
70707;SDS011;58277;47.316;18.908;2023-04-03T06:26:42;6.28;;;3.38;;
70707;SDS011;58277;47.316;18.908;2023-04-03T06:29:06;6.50;;;3.35;;
70707;SDS011;58277;47.316;18.908;2023-04-03T06:31:29;7.05;;;3.60;;
70707;SDS011;58277;47.316;18.908;2023-04-03T06:33:52;7.55;;;3.50;;
70707;SDS011;58277;47.316;18.908;2023-04-03T06:36:17;6.23;;;2.97;;
70707;SDS011;58277;47.316;18.908;2023-04-03T06:38:43;5.53;;;3.08;;
70707;SDS011;58277;47.316;18.908;2023-04-03T06:41:06;6.43;;;3.40;;
70707;SDS011;58277;47.316;18.908;2023-04-03T06:43:30;6.20;;;3.20;;
70707;SDS011;58277;47.316;18.908;2023-04-03T06:45:56;6.57;;;3.50;;
70707;SDS011;58277;47.316;18.908;2023-04-03T06:48:20;7.07;;;3.30;;
70707;SDS011;58277;47.316;18.908;2023-04-03T06:50:43;7.63;;;3.40;;
70707;SDS011;58277;47.316;18.908;2023-04-03T06:53:06;6.30;;;3.58;;
70707;SDS011;58277;47.316;18.908;2023-04-03T06:55:29;7.18;;;4.13;;
70707;SDS011;58277;47.316;18.908;2023-04-03T06:57:52;6.57;;;3.70;;
70707;SDS011;58277;47.316;18.908;2023-04-03T07:00:16;5.80;;;3.50;;
70707;SDS011;58277;47.316;18.908;2023-04-03T07:02:39;6.75;;;3.65;;
70707;SDS011;58277;47.316;18.908;2023-04-03T07:05:02;6.05;;;3.40;;
70707;SDS011;58277;47.316;18.908;2023-04-03T07:07:25;6.93;;;3.50;;
70707;SDS011;58277;47.316;18.908;2023-04-03T07:09:48;6.20;;;3.30;;
70707;SDS011;58277;47.316;18.908;2023-04-03T07:12:11;5.78;;;3.42;;
70707;SDS011;58277;47.316;18.908;2023-04-03T07:14:34;8.32;;;3.45;;
70707;SDS011;58277;47.316;18.908;2023-04-03T07:16:57;6.35;;;3.45;;
70707;SDS011;58277;47.316;18.908;2023-04-03T07:19:21;6.15;;;3.67;;
70707;SDS011;58277;47.316;18.908;2023-04-03T07:21:48;7.05;;;3.30;;
70707;SDS011;58277;47.316;18.908;2023-04-03T07:24:11;5.97;;;3.53;;
70707;SDS011;58277;47.316;18.908;2023-04-03T07:26:38;5.35;;;3.22;;
70707;SDS011;58277;47.316;18.908;2023-04-03T07:29:01;4.75;;;3.05;;
70707;SDS011;58277;47.316;18.908;2023-04-03T07:31:24;5.60;;;2.97;;
70707;SDS011;58277;47.316;18.908;2023-04-03T07:33:49;6.10;;;3.17;;
70707;SDS011;58277;47.316;18.908;2023-04-03T07:36:16;4.87;;;2.83;;
70707;SDS011;58277;47.316;18.908;2023-04-03T07:38:42;5.25;;;3.08;;
70707;SDS011;58277;47.316;18.908;2023-04-03T07:41:05;5.95;;;2.70;;
70707;SDS011;58277;47.316;18.908;2023-04-03T07:43:30;4.80;;;2.75;;
70707;SDS011;58277;47.316;18.908;2023-04-03T07:45:53;5.03;;;2.85;;
70707;SDS011;58277;47.316;18.908;2023-04-03T07:48:18;5.03;;;2.77;;
70707;SDS011;58277;47.316;18.908;2023-04-03T07:50:45;4.97;;;2.75;;
70707;SDS011;58277;47.316;18.908;2023-04-03T07:53:08;4.88;;;2.47;;
70707;SDS011;58277;47.316;18.908;2023-04-03T07:55:32;4.95;;;2.83;;
70707;SDS011;58277;47.316;18.908;2023-04-03T07:57:56;5.50;;;3.22;;
70707;SDS011;58277;47.316;18.908;2023-04-03T08:00:20;4.47;;;2.73;;
70707;SDS011;58277;47.316;18.908;2023-04-03T08:02:43;7.63;;;3.22;;
70707;SDS011;58277;47.316;18.908;2023-04-03T08:05:17;5.00;;;2.67;;
70707;SDS011;58277;47.316;18.908;2023-04-03T08:07:42;4.75;;;2.70;;
70707;SDS011;58277;47.316;18.908;2023-04-03T08:10:05;7.97;;;3.95;;
70707;SDS011;58277;47.316;18.908;2023-04-03T08:12:32;4.73;;;2.67;;
70707;SDS011;58277;47.316;18.908;2023-04-03T08:15:16;4.00;;;2.50;;
70707;SDS011;58277;47.316;18.908;2023-04-03T08:17:38;4.45;;;2.45;;
70707;SDS011;58277;47.316;18.908;2023-04-03T08:20:02;3.60;;;2.20;;
70707;SDS011;58277;47.316;18.908;2023-04-03T08:22:27;4.75;;;2.60;;
70707;SDS011;58277;47.316;18.908;2023-04-03T08:24:51;3.78;;;2.20;;
70707;SDS011;58277;47.316;18.908;2023-04-03T08:27:20;3.58;;;2.10;;
70707;SDS011;58277;47.316;18.908;2023-04-03T08:29:43;4.18;;;2.65;;
70707;SDS011;58277;47.316;18.908;2023-04-03T08:32:07;4.05;;;2.35;;
70707;SDS011;58277;47.316;18.908;2023-04-03T08:34:30;3.70;;;2.40;;
70707;SDS011;58277;47.316;18.908;2023-04-03T08:36:53;3.77;;;2.20;;
70707;SDS011;58277;47.316;18.908;2023-04-03T08:39:16;3.70;;;2.38;;
70707;SDS011;58277;47.316;18.908;2023-04-03T08:41:39;3.65;;;2.25;;
70707;SDS011;58277;47.316;18.908;2023-04-03T08:46:58;3.42;;;2.10;;
70707;SDS011;58277;47.316;18.908;2023-04-03T08:49:43;4.43;;;2.33;;
70707;SDS011;58277;47.316;18.908;2023-04-03T08:52:12;4.38;;;2.50;;
70707;SDS011;58277;47.316;18.908;2023-04-03T08:57:13;4.07;;;2.42;;
70707;SDS011;58277;47.316;18.908;2023-04-03T08:59:37;4.15;;;2.38;;
70707;SDS011;58277;47.316;18.908;2023-04-03T09:02:04;4.05;;;2.35;;
70707;SDS011;58277;47.316;18.908;2023-04-03T09:04:44;3.03;;;2.03;;
70707;SDS011;58277;47.316;18.908;2023-04-03T09:07:08;4.47;;;2.70;;
70707;SDS011;58277;47.316;18.908;2023-04-03T09:09:40;3.63;;;2.20;;
70707;SDS011;58277;47.316;18.908;2023-04-03T09:12:24;4.32;;;2.13;;
70707;SDS011;58277;47.316;18.908;2023-04-03T09:15:06;6.23;;;2.37;;
70707;SDS011;58277;47.316;18.908;2023-04-03T09:20:14;3.42;;;2.15;;
70707;SDS011;58277;47.316;18.908;2023-04-03T09:23:04;3.25;;;2.17;;
70707;SDS011;58277;47.316;18.908;2023-04-03T09:25:37;4.03;;;2.20;;
70707;SDS011;58277;47.316;18.908;2023-04-03T09:28:01;3.80;;;1.90;;
70707;SDS011;58277;47.316;18.908;2023-04-03T09:30:25;3.70;;;2.28;;
70707;SDS011;58277;47.316;18.908;2023-04-03T09:32:49;3.17;;;2.03;;
70707;SDS011;58277;47.316;18.908;2023-04-03T09:35:27;3.00;;;1.83;;
70707;SDS011;58277;47.316;18.908;2023-04-03T09:40:33;3.63;;;1.98;;
70707;SDS011;58277;47.316;18.908;2023-04-03T09:42:59;2.50;;;1.80;;
70707;SDS011;58277;47.316;18.908;2023-04-03T09:45:43;3.92;;;2.15;;
70707;SDS011;58277;47.316;18.908;2023-04-03T09:48:13;4.72;;;2.78;;
70707;SDS011;58277;47.316;18.908;2023-04-03T09:53:29;3.17;;;2.08;;
70707;SDS011;58277;47.316;18.908;2023-04-03T09:55:59;2.95;;;1.90;;
70707;SDS011;58277;47.316;18.908;2023-04-03T09:58:29;3.10;;;2.10;;
70707;SDS011;58277;47.316;18.908;2023-04-03T10:04:02;6.32;;;2.97;;
70707;SDS011;58277;47.316;18.908;2023-04-03T10:06:25;3.42;;;1.90;;
70707;SDS011;58277;47.316;18.908;2023-04-03T10:08:59;3.47;;;1.80;;
70707;SDS011;58277;47.316;18.908;2023-04-03T10:11:28;5.90;;;3.47;;
70707;SDS011;58277;47.316;18.908;2023-04-03T10:13:52;3.92;;;2.10;;
70707;SDS011;58277;47.316;18.908;2023-04-03T10:16:18;4.25;;;1.70;;
70707;SDS011;58277;47.316;18.908;2023-04-03T10:19:34;3.78;;;2.22;;
70707;SDS011;58277;47.316;18.908;2023-04-03T10:24:25;3.13;;;1.95;;
70707;SDS011;58277;47.316;18.908;2023-04-03T10:34:40;4.65;;;2.10;;
70707;SDS011;58277;47.316;18.908;2023-04-03T10:37:24;3.63;;;2.35;;
70707;SDS011;58277;47.316;18.908;2023-04-03T10:45:55;3.47;;;2.00;;
70707;SDS011;58277;47.316;18.908;2023-04-03T10:48:51;3.40;;;2.05;;
70707;SDS011;58277;47.316;18.908;2023-04-03T10:57:38;3.30;;;1.90;;
70707;SDS011;58277;47.316;18.908;2023-04-03T11:00:05;3.78;;;1.75;;
70707;SDS011;58277;47.316;18.908;2023-04-03T11:02:54;1.90;;;1.38;;
70707;SDS011;58277;47.316;18.908;2023-04-03T11:10:55;2.45;;;1.70;;
70707;SDS011;58277;47.316;18.908;2023-04-03T11:15:56;2.38;;;1.67;;
70707;SDS011;58277;47.316;18.908;2023-04-03T11:18:27;2.92;;;1.50;;
70707;SDS011;58277;47.316;18.908;2023-04-03T11:21:13;2.90;;;2.10;;
70707;SDS011;58277;47.316;18.908;2023-04-03T11:23:42;3.72;;;2.53;;
70707;SDS011;58277;47.316;18.908;2023-04-03T11:26:12;2.53;;;1.65;;
70707;SDS011;58277;47.316;18.908;2023-04-03T11:28:37;2.20;;;1.40;;
70707;SDS011;58277;47.316;18.908;2023-04-03T11:36:28;2.63;;;1.50;;
70707;SDS011;58277;47.316;18.908;2023-04-03T11:39:07;2.40;;;1.52;;
70707;SDS011;58277;47.316;18.908;2023-04-03T11:41:41;2.50;;;1.60;;
70707;SDS011;58277;47.316;18.908;2023-04-03T11:44:05;2.85;;;1.60;;
70707;SDS011;58277;47.316;18.908;2023-04-03T11:46:58;3.40;;;1.80;;
70707;SDS011;58277;47.316;18.908;2023-04-03T11:57:44;3.38;;;1.70;;
70707;SDS011;58277;47.316;18.908;2023-04-03T12:13:31;2.00;;;1.50;;
70707;SDS011;58277;47.316;18.908;2023-04-03T12:15:54;3.83;;;1.60;;
70707;SDS011;58277;47.316;18.908;2023-04-03T12:18:37;3.40;;;1.70;;
70707;SDS011;58277;47.316;18.908;2023-04-03T12:21:05;2.58;;;1.60;;
70707;SDS011;58277;47.316;18.908;2023-04-03T12:23:30;2.70;;;1.75;;
70707;SDS011;58277;47.316;18.908;2023-04-03T12:26:03;3.92;;;2.30;;
70707;SDS011;58277;47.316;18.908;2023-04-03T12:28:44;2.70;;;1.90;;
70707;SDS011;58277;47.316;18.908;2023-04-03T12:31:11;3.13;;;1.90;;
70707;SDS011;58277;47.316;18.908;2023-04-03T12:36:27;3.88;;;2.25;;
70707;SDS011;58277;47.316;18.908;2023-04-03T12:39:03;2.97;;;2.05;;
70707;SDS011;58277;47.316;18.908;2023-04-03T12:44:48;3.40;;;2.08;;
70707;SDS011;58277;47.316;18.908;2023-04-03T12:47:33;3.85;;;2.00;;
70707;SDS011;58277;47.316;18.908;2023-04-03T12:50:00;2.97;;;1.95;;
70707;SDS011;58277;47.316;18.908;2023-04-03T12:52:30;4.00;;;1.70;;
70707;SDS011;58277;47.316;18.908;2023-04-03T12:54:56;3.13;;;2.08;;
70707;SDS011;58277;47.316;18.908;2023-04-03T12:57:26;3.58;;;2.10;;
70707;SDS011;58277;47.316;18.908;2023-04-03T12:59:53;3.00;;;1.67;;
70707;SDS011;58277;47.316;18.908;2023-04-03T13:04:45;3.30;;;1.85;;
70707;SDS011;58277;47.316;18.908;2023-04-03T13:07:18;2.42;;;1.67;;
70707;SDS011;58277;47.316;18.908;2023-04-03T13:09:43;2.97;;;1.90;;
70707;SDS011;58277;47.316;18.908;2023-04-03T13:12:10;2.60;;;1.63;;
70707;SDS011;58277;47.316;18.908;2023-04-03T13:14:34;2.63;;;1.75;;
70707;SDS011;58277;47.316;18.908;2023-04-03T13:17:03;3.47;;;1.85;;
70707;SDS011;58277;47.316;18.908;2023-04-03T13:19:28;4.43;;;2.50;;
70707;SDS011;58277;47.316;18.908;2023-04-03T13:21:57;5.03;;;2.00;;
70707;SDS011;58277;47.316;18.908;2023-04-03T13:24:23;8.55;;;2.97;;
70707;SDS011;58277;47.316;18.908;2023-04-03T13:26:46;26.20;;;5.95;;
70707;SDS011;58277;47.316;18.908;2023-04-03T13:29:19;16.90;;;4.43;;
70707;SDS011;58277;47.316;18.908;2023-04-03T13:31:54;8.68;;;3.30;;
70707;SDS011;58277;47.316;18.908;2023-04-03T13:34:19;3.78;;;1.90;;
70707;SDS011;58277;47.316;18.908;2023-04-03T13:36:44;3.53;;;1.95;;
70707;SDS011;58277;47.316;18.908;2023-04-03T13:41:51;3.33;;;1.70;;
70707;SDS011;58277;47.316;18.908;2023-04-03T13:46:44;3.03;;;1.90;;
70707;SDS011;58277;47.316;18.908;2023-04-03T13:51:50;4.13;;;2.30;;
70707;SDS011;58277;47.316;18.908;2023-04-03T13:54:30;3.25;;;2.00;;
70707;SDS011;58277;47.316;18.908;2023-04-03T13:56:57;3.35;;;2.08;;
70707;SDS011;58277;47.316;18.908;2023-04-03T13:59:39;3.40;;;1.92;;
70707;SDS011;58277;47.316;18.908;2023-04-03T14:04:26;4.47;;;2.40;;
70707;SDS011;58277;47.316;18.908;2023-04-03T14:06:51;3.85;;;2.20;;
70707;SDS011;58277;47.316;18.908;2023-04-03T14:09:16;4.47;;;2.60;;
70707;SDS011;58277;47.316;18.908;2023-04-03T14:11:39;3.58;;;2.22;;
70707;SDS011;58277;47.316;18.908;2023-04-03T14:14:11;4.75;;;2.60;;
70707;SDS011;58277;47.316;18.908;2023-04-03T14:16:38;4.95;;;2.78;;
70707;SDS011;58277;47.316;18.908;2023-04-03T14:19:03;4.88;;;2.65;;
70707;SDS011;58277;47.316;18.908;2023-04-03T14:21:26;4.65;;;2.92;;
70707;SDS011;58277;47.316;18.908;2023-04-03T14:23:49;4.90;;;2.80;;
70707;SDS011;58277;47.316;18.908;2023-04-03T14:26:20;4.10;;;2.70;;
70707;SDS011;58277;47.316;18.908;2023-04-03T14:28:46;4.72;;;2.85;;
70707;SDS011;58277;47.316;18.908;2023-04-03T14:31:13;4.53;;;2.72;;
70707;SDS011;58277;47.316;18.908;2023-04-03T14:33:38;6.18;;;3.30;;
70707;SDS011;58277;47.316;18.908;2023-04-03T14:36:01;4.47;;;3.15;;
70707;SDS011;58277;47.316;18.908;2023-04-03T14:38:26;5.38;;;3.00;;
70707;SDS011;58277;47.316;18.908;2023-04-03T14:40:51;5.30;;;3.15;;
70707;SDS011;58277;47.316;18.908;2023-04-03T14:43:17;6.25;;;3.03;;
70707;SDS011;58277;47.316;18.908;2023-04-03T14:45:40;4.70;;;3.00;;
70707;SDS011;58277;47.316;18.908;2023-04-03T14:48:03;4.53;;;3.00;;
70707;SDS011;58277;47.316;18.908;2023-04-03T14:50:26;4.32;;;2.90;;
70707;SDS011;58277;47.316;18.908;2023-04-03T14:52:50;4.13;;;2.60;;
70707;SDS011;58277;47.316;18.908;2023-04-03T14:55:16;6.43;;;2.83;;
70707;SDS011;58277;47.316;18.908;2023-04-03T14:57:40;4.10;;;2.70;;
70707;SDS011;58277;47.316;18.908;2023-04-03T15:00:04;3.80;;;2.60;;
70707;SDS011;58277;47.316;18.908;2023-04-03T15:02:37;6.38;;;2.30;;
70707;SDS011;58277;47.316;18.908;2023-04-03T15:05:03;4.30;;;2.80;;
70707;SDS011;58277;47.316;18.908;2023-04-03T15:07:27;4.35;;;2.42;;
70707;SDS011;58277;47.316;18.908;2023-04-03T15:09:52;6.97;;;2.85;;
70707;SDS011;58277;47.316;18.908;2023-04-03T15:12:15;3.95;;;2.30;;
70707;SDS011;58277;47.316;18.908;2023-04-03T15:14:38;5.10;;;2.53;;
70707;SDS011;58277;47.316;18.908;2023-04-03T15:17:05;5.07;;;2.60;;
70707;SDS011;58277;47.316;18.908;2023-04-03T15:19:31;5.28;;;2.60;;
70707;SDS011;58277;47.316;18.908;2023-04-03T15:21:59;4.03;;;2.50;;
70707;SDS011;58277;47.316;18.908;2023-04-03T15:24:22;5.72;;;2.88;;
70707;SDS011;58277;47.316;18.908;2023-04-03T15:26:45;7.75;;;2.90;;
70707;SDS011;58277;47.316;18.908;2023-04-03T15:29:08;4.97;;;2.70;;
70707;SDS011;58277;47.316;18.908;2023-04-03T15:31:32;5.25;;;2.70;;
70707;SDS011;58277;47.316;18.908;2023-04-03T15:33:55;5.07;;;2.63;;
70707;SDS011;58277;47.316;18.908;2023-04-03T15:36:18;5.50;;;2.30;;
70707;SDS011;58277;47.316;18.908;2023-04-03T15:38:44;4.25;;;2.55;;
70707;SDS011;58277;47.316;18.908;2023-04-03T15:41:06;6.05;;;2.50;;
70707;SDS011;58277;47.316;18.908;2023-04-03T15:43:29;4.25;;;2.20;;
70707;SDS011;58277;47.316;18.908;2023-04-03T15:45:52;3.63;;;2.13;;
70707;SDS011;58277;47.316;18.908;2023-04-03T15:48:20;5.27;;;2.43;;
70707;SDS011;58277;47.316;18.908;2023-04-03T15:50:43;2.85;;;2.08;;
70707;SDS011;58277;47.316;18.908;2023-04-03T15:53:06;4.03;;;2.13;;
70707;SDS011;58277;47.316;18.908;2023-04-03T15:55:29;3.60;;;2.08;;
70707;SDS011;58277;47.316;18.908;2023-04-03T15:57:54;5.40;;;2.30;;
70707;SDS011;58277;47.316;18.908;2023-04-03T16:00:17;4.93;;;2.50;;
70707;SDS011;58277;47.316;18.908;2023-04-03T16:02:41;3.67;;;1.90;;
70707;SDS011;58277;47.316;18.908;2023-04-03T16:05:05;5.22;;;2.40;;
70707;SDS011;58277;47.316;18.908;2023-04-03T16:07:28;4.50;;;2.10;;
70707;SDS011;58277;47.316;18.908;2023-04-03T16:09:51;5.07;;;2.30;;